Terminal Aerodrome Forecast
Issued by NWS Cleveland, OH

Home | Current Version | Previous Version | Graphics & Text | Print | Product List | Glossary On
Versions: 1 2 3 4 5 6 7 8 9 10 11 12 13 14 15 16 17
000
FTUS41 KCLE 161700
TAFERI
TAF
KERI 161739Z 1618/1718 35006KT P6SM SKC
     FM162100 32004KT P6SM SCT040
     FM170900 20003KT P6SM SKC
     FM171400 27006KT P6SM SCT035=

USA.gov is the U.S. government's official web portal to all federal, state and local government web resources and services.